<?xml version="1.0" encoding="UTF-8" standalone="no" ?>
<gpx xmlns="http://www.topografix.com/GPX/1/1" xmlns:xsi="http://www.w3.org/2001/XMLSchema-instance" xsi:schemaLocation="http://www.topografix.com/GPX/1/1 http://www.topografix.com/GPX/1/1/gpx.xsd" version="1.1" creator="VisuGPX - https://www.visugpx.com">
  <metadata>
    <name>2018-03-05-46-Lentillac-Les Masses</name>
    <desc><![CDATA[Randonnée de 13 km environ 200m de dénivelé
Passage au moulin de Font Faurès et l'igue de Caumont]]></desc>
  </metadata>
  <trk>
    <name><![CDATA[LENTILLAC LES MAZES]]></name>
    <trkseg>
      <trkpt lat="44.55827" lon="1.63946">
        <ele>300.07</ele>
        <time>2018-03-05T13:00:54Z</time>
      </trkpt>
      <trkpt lat="44.55811" lon="1.6395">
        <ele>301.99</ele>
        <time>2018-03-05T13:05:08Z</time>
      </trkpt>
      <trkpt lat="44.55794" lon="1.63949">
        <ele>303.43</ele>
        <time>2018-03-05T13:05:28Z</time>
      </trkpt>
      <trkpt lat="44.55777" lon="1.63937">
        <ele>303.43</ele>
        <time>2018-03-05T13:05:46Z</time>
      </trkpt>
      <trkpt lat="44.55759" lon="1.63931">
        <ele>301.99</ele>
        <time>2018-03-05T13:06:05Z</time>
      </trkpt>
      <trkpt lat="44.55739" lon="1.63923">
        <ele>300.07</ele>
        <time>2018-03-05T13:06:22Z</time>
      </trkpt>
      <trkpt lat="44.55728" lon="1.63903">
        <ele>299.59</ele>
        <time>2018-03-05T13:06:36Z</time>
      </trkpt>
      <trkpt lat="44.55719" lon="1.63878">
        <ele>299.11</ele>
        <time>2018-03-05T13:06:53Z</time>
      </trkpt>
      <trkpt lat="44.55712" lon="1.63851">
        <ele>299.11</ele>
        <time>2018-03-05T13:07:11Z</time>
      </trkpt>
      <trkpt lat="44.557" lon="1.63826">
        <ele>298.63</ele>
        <time>2018-03-05T13:07:28Z</time>
      </trkpt>
      <trkpt lat="44.55686" lon="1.63811">
        <ele>298.63</ele>
        <time>2018-03-05T13:07:42Z</time>
      </trkpt>
      <trkpt lat="44.55676" lon="1.63792">
        <ele>298.63</ele>
        <time>2018-03-05T13:08:04Z</time>
      </trkpt>
      <trkpt lat="44.55678" lon="1.63763">
        <ele>297.67</ele>
        <time>2018-03-05T13:08:23Z</time>
      </trkpt>
      <trkpt lat="44.55675" lon="1.63734">
        <ele>296.7</ele>
        <time>2018-03-05T13:08:43Z</time>
      </trkpt>
      <trkpt lat="44.5567" lon="1.63709">
        <ele>294.78</ele>
        <time>2018-03-05T13:09:09Z</time>
      </trkpt>
      <trkpt lat="44.55655" lon="1.63692">
        <ele>293.82</ele>
        <time>2018-03-05T13:09:53Z</time>
      </trkpt>
      <trkpt lat="44.55626" lon="1.63684">
        <ele>295.26</ele>
        <time>2018-03-05T13:10:17Z</time>
      </trkpt>
      <trkpt lat="44.55608" lon="1.63676">
        <ele>295.26</ele>
        <time>2018-03-05T13:10:35Z</time>
      </trkpt>
      <trkpt lat="44.55606" lon="1.63648">
        <ele>292.86</ele>
        <time>2018-03-05T13:10:57Z</time>
      </trkpt>
      <trkpt lat="44.55609" lon="1.63612">
        <ele>291.9</ele>
        <time>2018-03-05T13:11:19Z</time>
      </trkpt>
      <trkpt lat="44.55613" lon="1.63583">
        <ele>291.9</ele>
        <time>2018-03-05T13:11:38Z</time>
      </trkpt>
      <trkpt lat="44.55628" lon="1.63558">
        <ele>292.86</ele>
        <time>2018-03-05T13:11:59Z</time>
      </trkpt>
      <trkpt lat="44.55653" lon="1.63555">
        <ele>295.26</ele>
        <time>2018-03-05T13:12:24Z</time>
      </trkpt>
      <trkpt lat="44.55672" lon="1.63539">
        <ele>297.18</ele>
        <time>2018-03-05T13:12:49Z</time>
      </trkpt>
      <trkpt lat="44.55689" lon="1.63516">
        <ele>299.11</ele>
        <time>2018-03-05T13:13:14Z</time>
      </trkpt>
      <trkpt lat="44.55695" lon="1.63483">
        <ele>302.47</ele>
        <time>2018-03-05T13:13:43Z</time>
      </trkpt>
      <trkpt lat="44.55699" lon="1.63449">
        <ele>303.91</ele>
        <time>2018-03-05T13:14:10Z</time>
      </trkpt>
      <trkpt lat="44.55699" lon="1.63411">
        <ele>304.88</ele>
        <time>2018-03-05T13:14:39Z</time>
      </trkpt>
      <trkpt lat="44.5568" lon="1.63394">
        <ele>304.88</ele>
        <time>2018-03-05T13:15:11Z</time>
      </trkpt>
      <trkpt lat="44.55663" lon="1.63388">
        <ele>303.43</ele>
        <time>2018-03-05T13:16:07Z</time>
      </trkpt>
      <trkpt lat="44.55638" lon="1.6338">
        <ele>303.43</ele>
        <time>2018-03-05T13:16:30Z</time>
      </trkpt>
      <trkpt lat="44.55618" lon="1.63365">
        <ele>302.95</ele>
        <time>2018-03-05T13:16:46Z</time>
      </trkpt>
      <trkpt lat="44.55601" lon="1.6335">
        <ele>302.95</ele>
        <time>2018-03-05T13:17:00Z</time>
      </trkpt>
      <trkpt lat="44.55583" lon="1.63332">
        <ele>302.95</ele>
        <time>2018-03-05T13:17:13Z</time>
      </trkpt>
      <trkpt lat="44.55566" lon="1.6331">
        <ele>302.95</ele>
        <time>2018-03-05T13:17:28Z</time>
      </trkpt>
      <trkpt lat="44.55548" lon="1.63289">
        <ele>303.91</ele>
        <time>2018-03-05T13:17:47Z</time>
      </trkpt>
      <trkpt lat="44.55533" lon="1.6326">
        <ele>303.91</ele>
        <time>2018-03-05T13:18:09Z</time>
      </trkpt>
      <trkpt lat="44.55523" lon="1.63235">
        <ele>304.39</ele>
        <time>2018-03-05T13:18:25Z</time>
      </trkpt>
      <trkpt lat="44.55513" lon="1.63208">
        <ele>306.32</ele>
        <time>2018-03-05T13:18:43Z</time>
      </trkpt>
      <trkpt lat="44.55496" lon="1.63181">
        <ele>307.76</ele>
        <time>2018-03-05T13:19:26Z</time>
      </trkpt>
      <trkpt lat="44.55482" lon="1.63154">
        <ele>307.76</ele>
        <time>2018-03-05T13:19:43Z</time>
      </trkpt>
      <trkpt lat="44.55471" lon="1.63127">
        <ele>305.84</ele>
        <time>2018-03-05T13:19:59Z</time>
      </trkpt>
      <trkpt lat="44.55469" lon="1.63097">
        <ele>304.88</ele>
        <time>2018-03-05T13:20:14Z</time>
      </trkpt>
      <trkpt lat="44.55467" lon="1.63067">
        <ele>303.43</ele>
        <time>2018-03-05T13:20:30Z</time>
      </trkpt>
      <trkpt lat="44.55463" lon="1.63034">
        <ele>301.51</ele>
        <time>2018-03-05T13:20:47Z</time>
      </trkpt>
      <trkpt lat="44.55456" lon="1.63007">
        <ele>300.07</ele>
        <time>2018-03-05T13:21:02Z</time>
      </trkpt>
      <trkpt lat="44.55448" lon="1.62981">
        <ele>299.11</ele>
        <time>2018-03-05T13:21:18Z</time>
      </trkpt>
      <trkpt lat="44.55441" lon="1.62952">
        <ele>298.63</ele>
        <time>2018-03-05T13:21:36Z</time>
      </trkpt>
      <trkpt lat="44.55433" lon="1.62922">
        <ele>298.63</ele>
        <time>2018-03-05T13:21:55Z</time>
      </trkpt>
      <trkpt lat="44.55426" lon="1.62892">
        <ele>300.07</ele>
        <time>2018-03-05T13:22:16Z</time>
      </trkpt>
      <trkpt lat="44.5543" lon="1.62861">
        <ele>298.63</ele>
        <time>2018-03-05T13:22:39Z</time>
      </trkpt>
      <trkpt lat="44.55438" lon="1.62827">
        <ele>297.18</ele>
        <time>2018-03-05T13:23:02Z</time>
      </trkpt>
      <trkpt lat="44.55444" lon="1.62799">
        <ele>295.26</ele>
        <time>2018-03-05T13:23:21Z</time>
      </trkpt>
      <trkpt lat="44.55438" lon="1.62772">
        <ele>293.82</ele>
        <time>2018-03-05T13:23:58Z</time>
      </trkpt>
      <trkpt lat="44.55431" lon="1.6274">
        <ele>292.86</ele>
        <time>2018-03-05T13:24:23Z</time>
      </trkpt>
      <trkpt lat="44.55424" lon="1.62708">
        <ele>290.94</ele>
        <time>2018-03-05T13:24:45Z</time>
      </trkpt>
      <trkpt lat="44.55415" lon="1.62677">
        <ele>288.05</ele>
        <time>2018-03-05T13:25:08Z</time>
      </trkpt>
      <trkpt lat="44.55404" lon="1.62644">
        <ele>286.61</ele>
        <time>2018-03-05T13:25:31Z</time>
      </trkpt>
      <trkpt lat="44.55388" lon="1.62621">
        <ele>286.13</ele>
        <time>2018-03-05T13:25:50Z</time>
      </trkpt>
      <trkpt lat="44.55377" lon="1.626">
        <ele>287.57</ele>
        <time>2018-03-05T13:26:08Z</time>
      </trkpt>
      <trkpt lat="44.55369" lon="1.62576">
        <ele>287.09</ele>
        <time>2018-03-05T13:26:25Z</time>
      </trkpt>
      <trkpt lat="44.55361" lon="1.62552">
        <ele>285.65</ele>
        <time>2018-03-05T13:26:42Z</time>
      </trkpt>
      <trkpt lat="44.55355" lon="1.62527">
        <ele>285.65</ele>
        <time>2018-03-05T13:26:58Z</time>
      </trkpt>
      <trkpt lat="44.55354" lon="1.625">
        <ele>284.69</ele>
        <time>2018-03-05T13:27:16Z</time>
      </trkpt>
      <trkpt lat="44.5535" lon="1.62474">
        <ele>284.21</ele>
        <time>2018-03-05T13:27:34Z</time>
      </trkpt>
      <trkpt lat="44.55346" lon="1.62449">
        <ele>284.21</ele>
        <time>2018-03-05T13:27:52Z</time>
      </trkpt>
      <trkpt lat="44.55342" lon="1.62423">
        <ele>284.21</ele>
        <time>2018-03-05T13:28:09Z</time>
      </trkpt>
      <trkpt lat="44.5534" lon="1.62398">
        <ele>283.25</ele>
        <time>2018-03-05T13:28:30Z</time>
      </trkpt>
      <trkpt lat="44.55355" lon="1.62384">
        <ele>281.32</ele>
        <time>2018-03-05T13:28:48Z</time>
      </trkpt>
      <trkpt lat="44.55373" lon="1.62373">
        <ele>278.44</ele>
        <time>2018-03-05T13:29:08Z</time>
      </trkpt>
      <trkpt lat="44.55388" lon="1.62358">
        <ele>274.59</ele>
        <time>2018-03-05T13:29:29Z</time>
      </trkpt>
      <trkpt lat="44.55405" lon="1.62347">
        <ele>271.23</ele>
        <time>2018-03-05T13:29:47Z</time>
      </trkpt>
      <trkpt lat="44.55421" lon="1.62337">
        <ele>266.9</ele>
        <time>2018-03-05T13:30:06Z</time>
      </trkpt>
      <trkpt lat="44.55438" lon="1.62326">
        <ele>263.54</ele>
        <time>2018-03-05T13:30:26Z</time>
      </trkpt>
      <trkpt lat="44.55454" lon="1.62312">
        <ele>259.21</ele>
        <time>2018-03-05T13:30:49Z</time>
      </trkpt>
      <trkpt lat="44.55468" lon="1.623">
        <ele>254.89</ele>
        <time>2018-03-05T13:31:12Z</time>
      </trkpt>
      <trkpt lat="44.55484" lon="1.62282">
        <ele>249.6</ele>
        <time>2018-03-05T13:31:33Z</time>
      </trkpt>
      <trkpt lat="44.5547" lon="1.62274">
        <ele>249.12</ele>
        <time>2018-03-05T13:31:56Z</time>
      </trkpt>
      <trkpt lat="44.5545" lon="1.62273">
        <ele>249.12</ele>
        <time>2018-03-05T13:32:13Z</time>
      </trkpt>
      <trkpt lat="44.55431" lon="1.62269">
        <ele>249.12</ele>
        <time>2018-03-05T13:32:30Z</time>
      </trkpt>
      <trkpt lat="44.55409" lon="1.62262">
        <ele>249.12</ele>
        <time>2018-03-05T13:32:49Z</time>
      </trkpt>
      <trkpt lat="44.5539" lon="1.62253">
        <ele>249.12</ele>
        <time>2018-03-05T13:33:06Z</time>
      </trkpt>
      <trkpt lat="44.55371" lon="1.62237">
        <ele>248.64</ele>
        <time>2018-03-05T13:33:23Z</time>
      </trkpt>
      <trkpt lat="44.55355" lon="1.62217">
        <ele>248.64</ele>
        <time>2018-03-05T13:33:41Z</time>
      </trkpt>
      <trkpt lat="44.55341" lon="1.62197">
        <ele>248.16</ele>
        <time>2018-03-05T13:33:59Z</time>
      </trkpt>
      <trkpt lat="44.55326" lon="1.62176">
        <ele>248.16</ele>
        <time>2018-03-05T13:34:16Z</time>
      </trkpt>
      <trkpt lat="44.55309" lon="1.62158">
        <ele>248.16</ele>
        <time>2018-03-05T13:34:33Z</time>
      </trkpt>
      <trkpt lat="44.5529" lon="1.62144">
        <ele>248.16</ele>
        <time>2018-03-05T13:34:51Z</time>
      </trkpt>
      <trkpt lat="44.55288" lon="1.62118">
        <ele>247.2</ele>
        <time>2018-03-05T13:35:08Z</time>
      </trkpt>
      <trkpt lat="44.5529" lon="1.62093">
        <ele>247.2</ele>
        <time>2018-03-05T13:35:23Z</time>
      </trkpt>
      <trkpt lat="44.553" lon="1.62069">
        <ele>247.2</ele>
        <time>2018-03-05T13:35:40Z</time>
      </trkpt>
      <trkpt lat="44.5531" lon="1.6205">
        <ele>247.2</ele>
        <time>2018-03-05T13:36:00Z</time>
      </trkpt>
      <trkpt lat="44.5532" lon="1.62027">
        <ele>248.16</ele>
        <time>2018-03-05T13:36:15Z</time>
      </trkpt>
      <trkpt lat="44.55322" lon="1.62002">
        <ele>250.08</ele>
        <time>2018-03-05T13:36:33Z</time>
      </trkpt>
      <trkpt lat="44.55309" lon="1.61985">
        <ele>250.08</ele>
        <time>2018-03-05T13:36:51Z</time>
      </trkpt>
      <trkpt lat="44.55292" lon="1.61994">
        <ele>250.56</ele>
        <time>2018-03-05T13:37:07Z</time>
      </trkpt>
      <trkpt lat="44.55273" lon="1.62005">
        <ele>251.52</ele>
        <time>2018-03-05T13:37:27Z</time>
      </trkpt>
      <trkpt lat="44.55254" lon="1.62008">
        <ele>249.6</ele>
        <time>2018-03-05T13:37:44Z</time>
      </trkpt>
      <trkpt lat="44.55232" lon="1.62009">
        <ele>249.12</ele>
        <time>2018-03-05T13:38:06Z</time>
      </trkpt>
      <trkpt lat="44.5521" lon="1.62012">
        <ele>248.16</ele>
        <time>2018-03-05T13:38:29Z</time>
      </trkpt>
      <trkpt lat="44.55183" lon="1.62014">
        <ele>247.68</ele>
        <time>2018-03-05T13:38:53Z</time>
      </trkpt>
      <trkpt lat="44.5516" lon="1.62021">
        <ele>247.2</ele>
        <time>2018-03-05T13:39:14Z</time>
      </trkpt>
      <trkpt lat="44.55139" lon="1.62034">
        <ele>248.64</ele>
        <time>2018-03-05T13:39:36Z</time>
      </trkpt>
      <trkpt lat="44.55124" lon="1.62055">
        <ele>246.23</ele>
        <time>2018-03-05T13:39:56Z</time>
      </trkpt>
      <trkpt lat="44.55097" lon="1.62077">
        <ele>247.2</ele>
        <time>2018-03-05T13:40:25Z</time>
      </trkpt>
      <trkpt lat="44.55074" lon="1.62091">
        <ele>247.68</ele>
        <time>2018-03-05T13:40:51Z</time>
      </trkpt>
      <trkpt lat="44.55052" lon="1.62114">
        <ele>248.16</ele>
        <time>2018-03-05T13:41:18Z</time>
      </trkpt>
      <trkpt lat="44.55032" lon="1.62131">
        <ele>244.79</ele>
        <time>2018-03-05T13:41:42Z</time>
      </trkpt>
      <trkpt lat="44.55007" lon="1.62136">
        <ele>243.35</ele>
        <time>2018-03-05T13:42:05Z</time>
      </trkpt>
      <trkpt lat="44.54984" lon="1.62141">
        <ele>242.39</ele>
        <time>2018-03-05T13:42:24Z</time>
      </trkpt>
      <trkpt lat="44.54969" lon="1.62157">
        <ele>241.43</ele>
        <time>2018-03-05T13:42:41Z</time>
      </trkpt>
      <trkpt lat="44.54953" lon="1.62177">
        <ele>240.47</ele>
        <time>2018-03-05T13:43:02Z</time>
      </trkpt>
      <trkpt lat="44.54946" lon="1.62151">
        <ele>239.99</ele>
        <time>2018-03-05T13:44:02Z</time>
      </trkpt>
      <trkpt lat="44.54938" lon="1.62109">
        <ele>239.51</ele>
        <time>2018-03-05T13:44:32Z</time>
      </trkpt>
      <trkpt lat="44.54917" lon="1.62075">
        <ele>239.02</ele>
        <time>2018-03-05T13:44:57Z</time>
      </trkpt>
      <trkpt lat="44.54895" lon="1.62065">
        <ele>238.54</ele>
        <time>2018-03-05T13:45:17Z</time>
      </trkpt>
      <trkpt lat="44.54873" lon="1.62069">
        <ele>237.1</ele>
        <time>2018-03-05T13:45:40Z</time>
      </trkpt>
      <trkpt lat="44.5485" lon="1.62079">
        <ele>236.14</ele>
        <time>2018-03-05T13:46:02Z</time>
      </trkpt>
      <trkpt lat="44.54825" lon="1.62095">
        <ele>234.7</ele>
        <time>2018-03-05T13:46:31Z</time>
      </trkpt>
      <trkpt lat="44.54797" lon="1.62104">
        <ele>234.22</ele>
        <time>2018-03-05T13:46:57Z</time>
      </trkpt>
      <trkpt lat="44.54798" lon="1.62062">
        <ele>233.74</ele>
        <time>2018-03-05T13:47:27Z</time>
      </trkpt>
      <trkpt lat="44.54817" lon="1.62029">
        <ele>233.74</ele>
        <time>2018-03-05T13:47:56Z</time>
      </trkpt>
      <trkpt lat="44.5483" lon="1.61988">
        <ele>233.26</ele>
        <time>2018-03-05T13:48:23Z</time>
      </trkpt>
      <trkpt lat="44.54835" lon="1.6195">
        <ele>233.26</ele>
        <time>2018-03-05T13:48:48Z</time>
      </trkpt>
      <trkpt lat="44.54832" lon="1.61912">
        <ele>232.78</ele>
        <time>2018-03-05T13:49:16Z</time>
      </trkpt>
      <trkpt lat="44.54836" lon="1.61874">
        <ele>232.78</ele>
        <time>2018-03-05T13:49:42Z</time>
      </trkpt>
      <trkpt lat="44.54822" lon="1.61836">
        <ele>233.74</ele>
        <time>2018-03-05T13:50:08Z</time>
      </trkpt>
      <trkpt lat="44.548" lon="1.61811">
        <ele>230.85</ele>
        <time>2018-03-05T13:50:33Z</time>
      </trkpt>
      <trkpt lat="44.54772" lon="1.61797">
        <ele>227.01</ele>
        <time>2018-03-05T13:51:07Z</time>
      </trkpt>
      <trkpt lat="44.54756" lon="1.61764">
        <ele>226.53</ele>
        <time>2018-03-05T13:51:51Z</time>
      </trkpt>
      <trkpt lat="44.54747" lon="1.61721">
        <ele>227.49</ele>
        <time>2018-03-05T13:52:20Z</time>
      </trkpt>
      <trkpt lat="44.5473" lon="1.61674">
        <ele>225.57</ele>
        <time>2018-03-05T13:52:44Z</time>
      </trkpt>
      <trkpt lat="44.54707" lon="1.61662">
        <ele>224.12</ele>
        <time>2018-03-05T13:53:12Z</time>
      </trkpt>
      <trkpt lat="44.54678" lon="1.61666">
        <ele>222.2</ele>
        <time>2018-03-05T13:53:38Z</time>
      </trkpt>
      <trkpt lat="44.54652" lon="1.61664">
        <ele>222.2</ele>
        <time>2018-03-05T13:54:12Z</time>
      </trkpt>
      <trkpt lat="44.54627" lon="1.61657">
        <ele>221.72</ele>
        <time>2018-03-05T13:54:37Z</time>
      </trkpt>
      <trkpt lat="44.54595" lon="1.61657">
        <ele>220.28</ele>
        <time>2018-03-05T13:55:04Z</time>
      </trkpt>
      <trkpt lat="44.54567" lon="1.61666">
        <ele>219.32</ele>
        <time>2018-03-05T13:55:31Z</time>
      </trkpt>
      <trkpt lat="44.54542" lon="1.61681">
        <ele>218.84</ele>
        <time>2018-03-05T13:55:53Z</time>
      </trkpt>
      <trkpt lat="44.54521" lon="1.61669">
        <ele>218.36</ele>
        <time>2018-03-05T13:56:19Z</time>
      </trkpt>
      <trkpt lat="44.54499" lon="1.61646">
        <ele>217.88</ele>
        <time>2018-03-05T13:56:47Z</time>
      </trkpt>
      <trkpt lat="44.54467" lon="1.61583">
        <ele>215.47</ele>
        <time>2018-03-05T13:57:36Z</time>
      </trkpt>
      <trkpt lat="44.54453" lon="1.61527">
        <ele>214.99</ele>
        <time>2018-03-05T13:58:34Z</time>
      </trkpt>
      <trkpt lat="44.54429" lon="1.61496">
        <ele>216.91</ele>
        <time>2018-03-05T13:59:04Z</time>
      </trkpt>
      <trkpt lat="44.54398" lon="1.61493">
        <ele>212.59</ele>
        <time>2018-03-05T13:59:34Z</time>
      </trkpt>
      <trkpt lat="44.54368" lon="1.61503">
        <ele>214.03</ele>
        <time>2018-03-05T14:00:08Z</time>
      </trkpt>
      <trkpt lat="44.54348" lon="1.61531">
        <ele>211.63</ele>
        <time>2018-03-05T14:00:37Z</time>
      </trkpt>
      <trkpt lat="44.54325" lon="1.61535">
        <ele>210.19</ele>
        <time>2018-03-05T14:01:08Z</time>
      </trkpt>
      <trkpt lat="44.54285" lon="1.61494">
        <ele>207.3</ele>
        <time>2018-03-05T14:01:52Z</time>
      </trkpt>
      <trkpt lat="44.54255" lon="1.61494">
        <ele>205.38</ele>
        <time>2018-03-05T14:02:32Z</time>
      </trkpt>
      <trkpt lat="44.54225" lon="1.61494">
        <ele>201.05</ele>
        <time>2018-03-05T14:03:08Z</time>
      </trkpt>
      <trkpt lat="44.54186" lon="1.61521">
        <ele>197.69</ele>
        <time>2018-03-05T14:04:39Z</time>
      </trkpt>
      <trkpt lat="44.54154" lon="1.61529">
        <ele>196.25</ele>
        <time>2018-03-05T14:05:10Z</time>
      </trkpt>
      <trkpt lat="44.54123" lon="1.61517">
        <ele>195.77</ele>
        <time>2018-03-05T14:05:36Z</time>
      </trkpt>
      <trkpt lat="44.54094" lon="1.61487">
        <ele>194.32</ele>
        <time>2018-03-05T14:06:10Z</time>
      </trkpt>
      <trkpt lat="44.54058" lon="1.61456">
        <ele>192.4</ele>
        <time>2018-03-05T14:06:52Z</time>
      </trkpt>
      <trkpt lat="44.54032" lon="1.61421">
        <ele>190.48</ele>
        <time>2018-03-05T14:07:23Z</time>
      </trkpt>
      <trkpt lat="44.54009" lon="1.61405">
        <ele>189.52</ele>
        <time>2018-03-05T14:07:45Z</time>
      </trkpt>
      <trkpt lat="44.53978" lon="1.61402">
        <ele>190.48</ele>
        <time>2018-03-05T14:08:11Z</time>
      </trkpt>
      <trkpt lat="44.53958" lon="1.614">
        <ele>189.04</ele>
        <time>2018-03-05T14:08:37Z</time>
      </trkpt>
      <trkpt lat="44.53961" lon="1.61367">
        <ele>187.11</ele>
        <time>2018-03-05T14:09:06Z</time>
      </trkpt>
      <trkpt lat="44.53963" lon="1.61369">
        <ele>188.08</ele>
        <time>2018-03-05T14:10:09Z</time>
      </trkpt>
      <trkpt lat="44.53949" lon="1.61376">
        <ele>186.63</ele>
        <time>2018-03-05T14:10:32Z</time>
      </trkpt>
      <trkpt lat="44.53951" lon="1.61375">
        <ele>186.63</ele>
        <time>2018-03-05T14:11:40Z</time>
      </trkpt>
      <trkpt lat="44.53946" lon="1.6139">
        <ele>186.15</ele>
        <time>2018-03-05T14:13:10Z</time>
      </trkpt>
      <trkpt lat="44.53958" lon="1.61375">
        <ele>186.15</ele>
        <time>2018-03-05T14:13:55Z</time>
      </trkpt>
      <trkpt lat="44.53949" lon="1.61409">
        <ele>189.52</ele>
        <time>2018-03-05T14:16:22Z</time>
      </trkpt>
      <trkpt lat="44.53924" lon="1.61415">
        <ele>189.52</ele>
        <time>2018-03-05T14:16:45Z</time>
      </trkpt>
      <trkpt lat="44.53906" lon="1.61429">
        <ele>190.96</ele>
        <time>2018-03-05T14:17:13Z</time>
      </trkpt>
      <trkpt lat="44.53888" lon="1.61445">
        <ele>190</ele>
        <time>2018-03-05T14:17:30Z</time>
      </trkpt>
      <trkpt lat="44.53872" lon="1.61457">
        <ele>189.04</ele>
        <time>2018-03-05T14:17:45Z</time>
      </trkpt>
      <trkpt lat="44.53847" lon="1.61461">
        <ele>188.08</ele>
        <time>2018-03-05T14:18:11Z</time>
      </trkpt>
      <trkpt lat="44.53826" lon="1.61461">
        <ele>188.08</ele>
        <time>2018-03-05T14:18:25Z</time>
      </trkpt>
      <trkpt lat="44.53807" lon="1.6146">
        <ele>187.59</ele>
        <time>2018-03-05T14:18:38Z</time>
      </trkpt>
      <trkpt lat="44.53788" lon="1.61463">
        <ele>187.11</ele>
        <time>2018-03-05T14:18:59Z</time>
      </trkpt>
      <trkpt lat="44.53771" lon="1.61479">
        <ele>186.63</ele>
        <time>2018-03-05T14:19:16Z</time>
      </trkpt>
      <trkpt lat="44.53759" lon="1.61499">
        <ele>185.67</ele>
        <time>2018-03-05T14:19:32Z</time>
      </trkpt>
      <trkpt lat="44.5375" lon="1.61521">
        <ele>185.19</ele>
        <time>2018-03-05T14:19:46Z</time>
      </trkpt>
      <trkpt lat="44.53736" lon="1.61546">
        <ele>185.19</ele>
        <time>2018-03-05T14:20:05Z</time>
      </trkpt>
      <trkpt lat="44.53718" lon="1.61563">
        <ele>184.23</ele>
        <time>2018-03-05T14:20:26Z</time>
      </trkpt>
      <trkpt lat="44.537" lon="1.61544">
        <ele>182.79</ele>
        <time>2018-03-05T14:20:43Z</time>
      </trkpt>
      <trkpt lat="44.53684" lon="1.61525">
        <ele>182.31</ele>
        <time>2018-03-05T14:21:01Z</time>
      </trkpt>
      <trkpt lat="44.53684" lon="1.61516">
        <ele>181.35</ele>
        <time>2018-03-05T14:21:46Z</time>
      </trkpt>
      <trkpt lat="44.53668" lon="1.61518">
        <ele>182.79</ele>
        <time>2018-03-05T14:23:10Z</time>
      </trkpt>
      <trkpt lat="44.53652" lon="1.61533">
        <ele>183.75</ele>
        <time>2018-03-05T14:23:30Z</time>
      </trkpt>
      <trkpt lat="44.53636" lon="1.6155">
        <ele>183.75</ele>
        <time>2018-03-05T14:23:48Z</time>
      </trkpt>
      <trkpt lat="44.53615" lon="1.61558">
        <ele>183.75</ele>
        <time>2018-03-05T14:24:07Z</time>
      </trkpt>
      <trkpt lat="44.53592" lon="1.61568">
        <ele>182.79</ele>
        <time>2018-03-05T14:24:27Z</time>
      </trkpt>
      <trkpt lat="44.53574" lon="1.61582">
        <ele>182.79</ele>
        <time>2018-03-05T14:24:44Z</time>
      </trkpt>
      <trkpt lat="44.53555" lon="1.61596">
        <ele>182.79</ele>
        <time>2018-03-05T14:25:02Z</time>
      </trkpt>
      <trkpt lat="44.53539" lon="1.61614">
        <ele>182.79</ele>
        <time>2018-03-05T14:25:28Z</time>
      </trkpt>
      <trkpt lat="44.53523" lon="1.61635">
        <ele>181.83</ele>
        <time>2018-03-05T14:25:47Z</time>
      </trkpt>
      <trkpt lat="44.53509" lon="1.61662">
        <ele>180.87</ele>
        <time>2018-03-05T14:26:07Z</time>
      </trkpt>
      <trkpt lat="44.53502" lon="1.61692">
        <ele>179.9</ele>
        <time>2018-03-05T14:26:24Z</time>
      </trkpt>
      <trkpt lat="44.53496" lon="1.6172">
        <ele>179.9</ele>
        <time>2018-03-05T14:26:41Z</time>
      </trkpt>
      <trkpt lat="44.53485" lon="1.6175">
        <ele>179.9</ele>
        <time>2018-03-05T14:26:59Z</time>
      </trkpt>
      <trkpt lat="44.53468" lon="1.6177">
        <ele>179.9</ele>
        <time>2018-03-05T14:27:18Z</time>
      </trkpt>
      <trkpt lat="44.53449" lon="1.6179">
        <ele>179.9</ele>
        <time>2018-03-05T14:27:38Z</time>
      </trkpt>
      <trkpt lat="44.53426" lon="1.6181">
        <ele>178.94</ele>
        <time>2018-03-05T14:28:00Z</time>
      </trkpt>
      <trkpt lat="44.53408" lon="1.61835">
        <ele>178.94</ele>
        <time>2018-03-05T14:28:19Z</time>
      </trkpt>
      <trkpt lat="44.53392" lon="1.61858">
        <ele>178.46</ele>
        <time>2018-03-05T14:28:37Z</time>
      </trkpt>
      <trkpt lat="44.5338" lon="1.6188">
        <ele>178.94</ele>
        <time>2018-03-05T14:28:55Z</time>
      </trkpt>
      <trkpt lat="44.53365" lon="1.61902">
        <ele>180.38</ele>
        <time>2018-03-05T14:29:13Z</time>
      </trkpt>
      <trkpt lat="44.53345" lon="1.61911">
        <ele>182.31</ele>
        <time>2018-03-05T14:29:32Z</time>
      </trkpt>
      <trkpt lat="44.53326" lon="1.61894">
        <ele>186.15</ele>
        <time>2018-03-05T14:29:58Z</time>
      </trkpt>
      <trkpt lat="44.53314" lon="1.61915">
        <ele>187.11</ele>
        <time>2018-03-05T14:30:23Z</time>
      </trkpt>
      <trkpt lat="44.53315" lon="1.61947">
        <ele>184.71</ele>
        <time>2018-03-05T14:30:43Z</time>
      </trkpt>
      <trkpt lat="44.53318" lon="1.6198">
        <ele>181.83</ele>
        <time>2018-03-05T14:31:03Z</time>
      </trkpt>
      <trkpt lat="44.53317" lon="1.62017">
        <ele>180.87</ele>
        <time>2018-03-05T14:31:46Z</time>
      </trkpt>
      <trkpt lat="44.5331" lon="1.62049">
        <ele>177.98</ele>
        <time>2018-03-05T14:32:09Z</time>
      </trkpt>
      <trkpt lat="44.53294" lon="1.62075">
        <ele>177.02</ele>
        <time>2018-03-05T14:32:27Z</time>
      </trkpt>
      <trkpt lat="44.53282" lon="1.62103">
        <ele>175.58</ele>
        <time>2018-03-05T14:32:48Z</time>
      </trkpt>
      <trkpt lat="44.53275" lon="1.62135">
        <ele>174.62</ele>
        <time>2018-03-05T14:33:08Z</time>
      </trkpt>
      <trkpt lat="44.53269" lon="1.62164">
        <ele>174.14</ele>
        <time>2018-03-05T14:33:34Z</time>
      </trkpt>
      <trkpt lat="44.5327" lon="1.62197">
        <ele>173.66</ele>
        <time>2018-03-05T14:33:57Z</time>
      </trkpt>
      <trkpt lat="44.5328" lon="1.62226">
        <ele>173.66</ele>
        <time>2018-03-05T14:34:16Z</time>
      </trkpt>
      <trkpt lat="44.53276" lon="1.62255">
        <ele>174.62</ele>
        <time>2018-03-05T14:34:34Z</time>
      </trkpt>
      <trkpt lat="44.53273" lon="1.62283">
        <ele>175.1</ele>
        <time>2018-03-05T14:34:51Z</time>
      </trkpt>
      <trkpt lat="44.53283" lon="1.62309">
        <ele>175.1</ele>
        <time>2018-03-05T14:35:11Z</time>
      </trkpt>
      <trkpt lat="44.53288" lon="1.62336">
        <ele>172.69</ele>
        <time>2018-03-05T14:35:29Z</time>
      </trkpt>
      <trkpt lat="44.53296" lon="1.62362">
        <ele>172.21</ele>
        <time>2018-03-05T14:35:46Z</time>
      </trkpt>
      <trkpt lat="44.53306" lon="1.62389">
        <ele>171.73</ele>
        <time>2018-03-05T14:36:05Z</time>
      </trkpt>
      <trkpt lat="44.53315" lon="1.62414">
        <ele>171.73</ele>
        <time>2018-03-05T14:36:23Z</time>
      </trkpt>
      <trkpt lat="44.53325" lon="1.6244">
        <ele>173.17</ele>
        <time>2018-03-05T14:36:42Z</time>
      </trkpt>
      <trkpt lat="44.53338" lon="1.62463">
        <ele>174.14</ele>
        <time>2018-03-05T14:37:00Z</time>
      </trkpt>
      <trkpt lat="44.53353" lon="1.62483">
        <ele>174.14</ele>
        <time>2018-03-05T14:37:18Z</time>
      </trkpt>
      <trkpt lat="44.53374" lon="1.62491">
        <ele>172.69</ele>
        <time>2018-03-05T14:37:36Z</time>
      </trkpt>
      <trkpt lat="44.53396" lon="1.62486">
        <ele>170.77</ele>
        <time>2018-03-05T14:37:52Z</time>
      </trkpt>
      <trkpt lat="44.53409" lon="1.6251">
        <ele>170.77</ele>
        <time>2018-03-05T14:38:09Z</time>
      </trkpt>
      <trkpt lat="44.53413" lon="1.6254">
        <ele>170.77</ele>
        <time>2018-03-05T14:38:26Z</time>
      </trkpt>
      <trkpt lat="44.53412" lon="1.62569">
        <ele>170.29</ele>
        <time>2018-03-05T14:38:48Z</time>
      </trkpt>
      <trkpt lat="44.53407" lon="1.62596">
        <ele>170.29</ele>
        <time>2018-03-05T14:39:05Z</time>
      </trkpt>
      <trkpt lat="44.53402" lon="1.62626">
        <ele>169.33</ele>
        <time>2018-03-05T14:39:24Z</time>
      </trkpt>
      <trkpt lat="44.53398" lon="1.62658">
        <ele>169.33</ele>
        <time>2018-03-05T14:39:42Z</time>
      </trkpt>
      <trkpt lat="44.53396" lon="1.6269">
        <ele>169.33</ele>
        <time>2018-03-05T14:40:00Z</time>
      </trkpt>
      <trkpt lat="44.53392" lon="1.6272">
        <ele>169.33</ele>
        <time>2018-03-05T14:40:19Z</time>
      </trkpt>
      <trkpt lat="44.53385" lon="1.62751">
        <ele>169.33</ele>
        <time>2018-03-05T14:40:39Z</time>
      </trkpt>
      <trkpt lat="44.53385" lon="1.62783">
        <ele>169.33</ele>
        <time>2018-03-05T14:40:58Z</time>
      </trkpt>
      <trkpt lat="44.53373" lon="1.6281">
        <ele>168.85</ele>
        <time>2018-03-05T14:41:16Z</time>
      </trkpt>
      <trkpt lat="44.53361" lon="1.6284">
        <ele>168.85</ele>
        <time>2018-03-05T14:41:36Z</time>
      </trkpt>
      <trkpt lat="44.53351" lon="1.62869">
        <ele>168.37</ele>
        <time>2018-03-05T14:41:55Z</time>
      </trkpt>
      <trkpt lat="44.53337" lon="1.62901">
        <ele>167.89</ele>
        <time>2018-03-05T14:42:21Z</time>
      </trkpt>
      <trkpt lat="44.53314" lon="1.6294">
        <ele>167.89</ele>
        <time>2018-03-05T14:42:48Z</time>
      </trkpt>
      <trkpt lat="44.53302" lon="1.62975">
        <ele>167.41</ele>
        <time>2018-03-05T14:43:12Z</time>
      </trkpt>
      <trkpt lat="44.53289" lon="1.63008">
        <ele>166.93</ele>
        <time>2018-03-05T14:43:35Z</time>
      </trkpt>
      <trkpt lat="44.53274" lon="1.63041">
        <ele>166.45</ele>
        <time>2018-03-05T14:43:59Z</time>
      </trkpt>
      <trkpt lat="44.53251" lon="1.63065">
        <ele>165.48</ele>
        <time>2018-03-05T14:44:29Z</time>
      </trkpt>
      <trkpt lat="44.53219" lon="1.6309">
        <ele>164.52</ele>
        <time>2018-03-05T14:45:06Z</time>
      </trkpt>
      <trkpt lat="44.53187" lon="1.63098">
        <ele>164.04</ele>
        <time>2018-03-05T14:45:30Z</time>
      </trkpt>
      <trkpt lat="44.5316" lon="1.63095">
        <ele>163.08</ele>
        <time>2018-03-05T14:45:54Z</time>
      </trkpt>
      <trkpt lat="44.53131" lon="1.63099">
        <ele>161.64</ele>
        <time>2018-03-05T14:46:19Z</time>
      </trkpt>
      <trkpt lat="44.53106" lon="1.63111">
        <ele>160.68</ele>
        <time>2018-03-05T14:46:49Z</time>
      </trkpt>
      <trkpt lat="44.53113" lon="1.63135">
        <ele>160.68</ele>
        <time>2018-03-05T14:47:15Z</time>
      </trkpt>
      <trkpt lat="44.5313" lon="1.63149">
        <ele>160.68</ele>
        <time>2018-03-05T14:47:35Z</time>
      </trkpt>
      <trkpt lat="44.5315" lon="1.63158">
        <ele>160.68</ele>
        <time>2018-03-05T14:47:55Z</time>
      </trkpt>
      <trkpt lat="44.5317" lon="1.63165">
        <ele>160.68</ele>
        <time>2018-03-05T14:48:13Z</time>
      </trkpt>
      <trkpt lat="44.5319" lon="1.63164">
        <ele>161.64</ele>
        <time>2018-03-05T14:48:30Z</time>
      </trkpt>
      <trkpt lat="44.53209" lon="1.63159">
        <ele>161.64</ele>
        <time>2018-03-05T14:48:47Z</time>
      </trkpt>
      <trkpt lat="44.53226" lon="1.63151">
        <ele>161.64</ele>
        <time>2018-03-05T14:49:04Z</time>
      </trkpt>
      <trkpt lat="44.53243" lon="1.63138">
        <ele>162.12</ele>
        <time>2018-03-05T14:49:20Z</time>
      </trkpt>
      <trkpt lat="44.53258" lon="1.63124">
        <ele>162.6</ele>
        <time>2018-03-05T14:49:36Z</time>
      </trkpt>
      <trkpt lat="44.53275" lon="1.6311">
        <ele>162.6</ele>
        <time>2018-03-05T14:49:53Z</time>
      </trkpt>
      <trkpt lat="44.53292" lon="1.63095">
        <ele>163.08</ele>
        <time>2018-03-05T14:50:09Z</time>
      </trkpt>
      <trkpt lat="44.53305" lon="1.63078">
        <ele>163.56</ele>
        <time>2018-03-05T14:50:26Z</time>
      </trkpt>
      <trkpt lat="44.53319" lon="1.63058">
        <ele>163.56</ele>
        <time>2018-03-05T14:50:42Z</time>
      </trkpt>
      <trkpt lat="44.53331" lon="1.63037">
        <ele>163.56</ele>
        <time>2018-03-05T14:50:58Z</time>
      </trkpt>
      <trkpt lat="44.53341" lon="1.63017">
        <ele>164.04</ele>
        <time>2018-03-05T14:51:13Z</time>
      </trkpt>
      <trkpt lat="44.53351" lon="1.62996">
        <ele>164.04</ele>
        <time>2018-03-05T14:51:29Z</time>
      </trkpt>
      <trkpt lat="44.53361" lon="1.62974">
        <ele>164.04</ele>
        <time>2018-03-05T14:51:45Z</time>
      </trkpt>
      <trkpt lat="44.53364" lon="1.62994">
        <ele>166.45</ele>
        <time>2018-03-05T14:52:13Z</time>
      </trkpt>
      <trkpt lat="44.53353" lon="1.63041">
        <ele>171.73</ele>
        <time>2018-03-05T14:52:51Z</time>
      </trkpt>
      <trkpt lat="44.53371" lon="1.6304">
        <ele>176.06</ele>
        <time>2018-03-05T14:53:26Z</time>
      </trkpt>
      <trkpt lat="44.53393" lon="1.63052">
        <ele>180.87</ele>
        <time>2018-03-05T14:54:00Z</time>
      </trkpt>
      <trkpt lat="44.53415" lon="1.63069">
        <ele>184.23</ele>
        <time>2018-03-05T14:54:30Z</time>
      </trkpt>
      <trkpt lat="44.53436" lon="1.63077">
        <ele>186.15</ele>
        <time>2018-03-05T14:54:55Z</time>
      </trkpt>
      <trkpt lat="44.5346" lon="1.63081">
        <ele>187.59</ele>
        <time>2018-03-05T14:55:24Z</time>
      </trkpt>
      <trkpt lat="44.53481" lon="1.63102">
        <ele>189.04</ele>
        <time>2018-03-05T14:55:56Z</time>
      </trkpt>
      <trkpt lat="44.535" lon="1.63123">
        <ele>190.48</ele>
        <time>2018-03-05T14:56:18Z</time>
      </trkpt>
      <trkpt lat="44.5352" lon="1.63141">
        <ele>191.92</ele>
        <time>2018-03-05T14:56:42Z</time>
      </trkpt>
      <trkpt lat="44.53544" lon="1.63142">
        <ele>193.36</ele>
        <time>2018-03-05T14:57:07Z</time>
      </trkpt>
      <trkpt lat="44.53571" lon="1.63138">
        <ele>195.28</ele>
        <time>2018-03-05T14:57:34Z</time>
      </trkpt>
      <trkpt lat="44.53598" lon="1.6315">
        <ele>196.25</ele>
        <time>2018-03-05T14:57:59Z</time>
      </trkpt>
      <trkpt lat="44.53625" lon="1.63159">
        <ele>197.69</ele>
        <time>2018-03-05T14:58:25Z</time>
      </trkpt>
      <trkpt lat="44.53672" lon="1.63178">
        <ele>200.57</ele>
        <time>2018-03-05T14:59:17Z</time>
      </trkpt>
      <trkpt lat="44.53722" lon="1.63185">
        <ele>202.49</ele>
        <time>2018-03-05T14:59:59Z</time>
      </trkpt>
      <trkpt lat="44.53764" lon="1.63211">
        <ele>205.38</ele>
        <time>2018-03-05T15:00:46Z</time>
      </trkpt>
      <trkpt lat="44.53791" lon="1.63235">
        <ele>207.78</ele>
        <time>2018-03-05T15:01:16Z</time>
      </trkpt>
      <trkpt lat="44.53822" lon="1.6324">
        <ele>210.67</ele>
        <time>2018-03-05T15:01:41Z</time>
      </trkpt>
      <trkpt lat="44.53853" lon="1.63227">
        <ele>215.47</ele>
        <time>2018-03-05T15:02:16Z</time>
      </trkpt>
      <trkpt lat="44.53872" lon="1.6322">
        <ele>218.36</ele>
        <time>2018-03-05T15:02:41Z</time>
      </trkpt>
      <trkpt lat="44.53896" lon="1.63215">
        <ele>222.2</ele>
        <time>2018-03-05T15:03:11Z</time>
      </trkpt>
      <trkpt lat="44.53949" lon="1.63221">
        <ele>229.41</ele>
        <time>2018-03-05T15:04:13Z</time>
      </trkpt>
      <trkpt lat="44.53958" lon="1.63254">
        <ele>233.26</ele>
        <time>2018-03-05T15:04:45Z</time>
      </trkpt>
      <trkpt lat="44.53941" lon="1.63285">
        <ele>238.06</ele>
        <time>2018-03-05T15:05:24Z</time>
      </trkpt>
      <trkpt lat="44.53922" lon="1.63314">
        <ele>242.87</ele>
        <time>2018-03-05T15:05:58Z</time>
      </trkpt>
      <trkpt lat="44.53902" lon="1.63344">
        <ele>246.72</ele>
        <time>2018-03-05T15:06:25Z</time>
      </trkpt>
      <trkpt lat="44.5389" lon="1.63365">
        <ele>249.6</ele>
        <time>2018-03-05T15:06:50Z</time>
      </trkpt>
      <trkpt lat="44.53882" lon="1.63396">
        <ele>253.44</ele>
        <time>2018-03-05T15:07:18Z</time>
      </trkpt>
      <trkpt lat="44.53878" lon="1.6343">
        <ele>257.29</ele>
        <time>2018-03-05T15:07:44Z</time>
      </trkpt>
      <trkpt lat="44.53876" lon="1.63457">
        <ele>262.1</ele>
        <time>2018-03-05T15:08:15Z</time>
      </trkpt>
      <trkpt lat="44.53873" lon="1.63473">
        <ele>265.46</ele>
        <time>2018-03-05T15:10:05Z</time>
      </trkpt>
      <trkpt lat="44.53877" lon="1.63459">
        <ele>270.75</ele>
        <time>2018-03-05T15:21:13Z</time>
      </trkpt>
      <trkpt lat="44.53896" lon="1.63431">
        <ele>271.23</ele>
        <time>2018-03-05T15:22:54Z</time>
      </trkpt>
      <trkpt lat="44.53912" lon="1.6341">
        <ele>272.67</ele>
        <time>2018-03-05T15:23:15Z</time>
      </trkpt>
      <trkpt lat="44.53934" lon="1.63401">
        <ele>273.63</ele>
        <time>2018-03-05T15:23:33Z</time>
      </trkpt>
      <trkpt lat="44.53956" lon="1.63403">
        <ele>274.11</ele>
        <time>2018-03-05T15:23:49Z</time>
      </trkpt>
      <trkpt lat="44.53977" lon="1.63405">
        <ele>274.11</ele>
        <time>2018-03-05T15:24:04Z</time>
      </trkpt>
      <trkpt lat="44.53998" lon="1.63398">
        <ele>276.04</ele>
        <time>2018-03-05T15:24:22Z</time>
      </trkpt>
      <trkpt lat="44.5402" lon="1.63385">
        <ele>279.4</ele>
        <time>2018-03-05T15:24:43Z</time>
      </trkpt>
      <trkpt lat="44.54043" lon="1.63369">
        <ele>281.8</ele>
        <time>2018-03-05T15:25:03Z</time>
      </trkpt>
      <trkpt lat="44.5406" lon="1.6335">
        <ele>282.77</ele>
        <time>2018-03-05T15:25:23Z</time>
      </trkpt>
      <trkpt lat="44.5408" lon="1.63338">
        <ele>284.69</ele>
        <time>2018-03-05T15:25:44Z</time>
      </trkpt>
      <trkpt lat="44.54103" lon="1.63326">
        <ele>286.13</ele>
        <time>2018-03-05T15:26:08Z</time>
      </trkpt>
      <trkpt lat="44.54125" lon="1.63312">
        <ele>288.05</ele>
        <time>2018-03-05T15:26:34Z</time>
      </trkpt>
      <trkpt lat="44.54147" lon="1.63298">
        <ele>289.49</ele>
        <time>2018-03-05T15:26:58Z</time>
      </trkpt>
      <trkpt lat="44.54165" lon="1.63273">
        <ele>290.94</ele>
        <time>2018-03-05T15:27:22Z</time>
      </trkpt>
      <trkpt lat="44.54169" lon="1.6324">
        <ele>290.46</ele>
        <time>2018-03-05T15:27:43Z</time>
      </trkpt>
      <trkpt lat="44.54167" lon="1.6321">
        <ele>291.42</ele>
        <time>2018-03-05T15:28:02Z</time>
      </trkpt>
      <trkpt lat="44.54151" lon="1.63193">
        <ele>291.9</ele>
        <time>2018-03-05T15:28:22Z</time>
      </trkpt>
      <trkpt lat="44.54135" lon="1.63171">
        <ele>291.9</ele>
        <time>2018-03-05T15:28:44Z</time>
      </trkpt>
      <trkpt lat="44.54132" lon="1.63141">
        <ele>292.38</ele>
        <time>2018-03-05T15:29:03Z</time>
      </trkpt>
      <trkpt lat="44.5413" lon="1.63112">
        <ele>293.34</ele>
        <time>2018-03-05T15:29:21Z</time>
      </trkpt>
      <trkpt lat="44.54126" lon="1.63083">
        <ele>293.34</ele>
        <time>2018-03-05T15:29:38Z</time>
      </trkpt>
      <trkpt lat="44.54116" lon="1.63059">
        <ele>293.82</ele>
        <time>2018-03-05T15:29:58Z</time>
      </trkpt>
      <trkpt lat="44.54105" lon="1.63035">
        <ele>293.82</ele>
        <time>2018-03-05T15:30:17Z</time>
      </trkpt>
      <trkpt lat="44.541" lon="1.6301">
        <ele>294.3</ele>
        <time>2018-03-05T15:30:34Z</time>
      </trkpt>
      <trkpt lat="44.54105" lon="1.62989">
        <ele>294.78</ele>
        <time>2018-03-05T15:31:09Z</time>
      </trkpt>
      <trkpt lat="44.54099" lon="1.62978">
        <ele>294.3</ele>
        <time>2018-03-05T15:32:03Z</time>
      </trkpt>
      <trkpt lat="44.54097" lon="1.62948">
        <ele>293.34</ele>
        <time>2018-03-05T15:32:22Z</time>
      </trkpt>
      <trkpt lat="44.54112" lon="1.62929">
        <ele>292.38</ele>
        <time>2018-03-05T15:32:41Z</time>
      </trkpt>
      <trkpt lat="44.54131" lon="1.62919">
        <ele>290.94</ele>
        <time>2018-03-05T15:33:10Z</time>
      </trkpt>
      <trkpt lat="44.54148" lon="1.62908">
        <ele>289.01</ele>
        <time>2018-03-05T15:33:31Z</time>
      </trkpt>
      <trkpt lat="44.54163" lon="1.62889">
        <ele>288.05</ele>
        <time>2018-03-05T15:33:51Z</time>
      </trkpt>
      <trkpt lat="44.54181" lon="1.62869">
        <ele>287.57</ele>
        <time>2018-03-05T15:34:11Z</time>
      </trkpt>
      <trkpt lat="44.54201" lon="1.62849">
        <ele>287.57</ele>
        <time>2018-03-05T15:34:31Z</time>
      </trkpt>
      <trkpt lat="44.54222" lon="1.62829">
        <ele>287.57</ele>
        <time>2018-03-05T15:34:52Z</time>
      </trkpt>
      <trkpt lat="44.54245" lon="1.62806">
        <ele>287.57</ele>
        <time>2018-03-05T15:35:17Z</time>
      </trkpt>
      <trkpt lat="44.54265" lon="1.62793">
        <ele>287.57</ele>
        <time>2018-03-05T15:35:34Z</time>
      </trkpt>
      <trkpt lat="44.54275" lon="1.62786">
        <ele>286.61</ele>
        <time>2018-03-05T15:36:16Z</time>
      </trkpt>
      <trkpt lat="44.54274" lon="1.62757">
        <ele>285.17</ele>
        <time>2018-03-05T15:36:34Z</time>
      </trkpt>
      <trkpt lat="44.54274" lon="1.62726">
        <ele>285.17</ele>
        <time>2018-03-05T15:36:53Z</time>
      </trkpt>
      <trkpt lat="44.5427" lon="1.627">
        <ele>285.17</ele>
        <time>2018-03-05T15:37:09Z</time>
      </trkpt>
      <trkpt lat="44.54266" lon="1.62671">
        <ele>285.65</ele>
        <time>2018-03-05T15:37:31Z</time>
      </trkpt>
      <trkpt lat="44.54257" lon="1.62643">
        <ele>285.65</ele>
        <time>2018-03-05T15:37:48Z</time>
      </trkpt>
      <trkpt lat="44.54262" lon="1.62624">
        <ele>285.17</ele>
        <time>2018-03-05T15:38:53Z</time>
      </trkpt>
      <trkpt lat="44.54255" lon="1.62627">
        <ele>285.65</ele>
        <time>2018-03-05T15:40:13Z</time>
      </trkpt>
      <trkpt lat="44.54261" lon="1.62655">
        <ele>287.09</ele>
        <time>2018-03-05T15:40:33Z</time>
      </trkpt>
      <trkpt lat="44.54268" lon="1.62686">
        <ele>287.57</ele>
        <time>2018-03-05T15:40:52Z</time>
      </trkpt>
      <trkpt lat="44.54273" lon="1.62717">
        <ele>287.57</ele>
        <time>2018-03-05T15:41:11Z</time>
      </trkpt>
      <trkpt lat="44.54275" lon="1.62749">
        <ele>287.57</ele>
        <time>2018-03-05T15:41:30Z</time>
      </trkpt>
      <trkpt lat="44.54275" lon="1.6278">
        <ele>288.05</ele>
        <time>2018-03-05T15:41:47Z</time>
      </trkpt>
      <trkpt lat="44.54285" lon="1.62809">
        <ele>289.97</ele>
        <time>2018-03-05T15:42:06Z</time>
      </trkpt>
      <trkpt lat="44.54301" lon="1.62831">
        <ele>290.94</ele>
        <time>2018-03-05T15:42:24Z</time>
      </trkpt>
      <trkpt lat="44.54316" lon="1.62852">
        <ele>291.42</ele>
        <time>2018-03-05T15:42:41Z</time>
      </trkpt>
      <trkpt lat="44.54327" lon="1.62876">
        <ele>291.9</ele>
        <time>2018-03-05T15:42:57Z</time>
      </trkpt>
      <trkpt lat="44.54332" lon="1.62905">
        <ele>292.86</ele>
        <time>2018-03-05T15:43:14Z</time>
      </trkpt>
      <trkpt lat="44.54335" lon="1.62934">
        <ele>293.82</ele>
        <time>2018-03-05T15:43:30Z</time>
      </trkpt>
      <trkpt lat="44.54348" lon="1.62959">
        <ele>294.3</ele>
        <time>2018-03-05T15:43:46Z</time>
      </trkpt>
      <trkpt lat="44.54364" lon="1.62967">
        <ele>294.3</ele>
        <time>2018-03-05T15:44:01Z</time>
      </trkpt>
      <trkpt lat="44.54381" lon="1.62969">
        <ele>293.34</ele>
        <time>2018-03-05T15:44:12Z</time>
      </trkpt>
      <trkpt lat="44.54395" lon="1.62974">
        <ele>292.86</ele>
        <time>2018-03-05T15:44:23Z</time>
      </trkpt>
      <trkpt lat="44.54421" lon="1.62986">
        <ele>290.94</ele>
        <time>2018-03-05T15:44:54Z</time>
      </trkpt>
      <trkpt lat="44.54441" lon="1.62981">
        <ele>290.46</ele>
        <time>2018-03-05T15:45:04Z</time>
      </trkpt>
      <trkpt lat="44.54453" lon="1.62971">
        <ele>290.46</ele>
        <time>2018-03-05T15:45:13Z</time>
      </trkpt>
      <trkpt lat="44.54465" lon="1.6296">
        <ele>290.94</ele>
        <time>2018-03-05T15:45:28Z</time>
      </trkpt>
      <trkpt lat="44.54482" lon="1.62938">
        <ele>290.94</ele>
        <time>2018-03-05T15:45:47Z</time>
      </trkpt>
      <trkpt lat="44.545" lon="1.62921">
        <ele>293.82</ele>
        <time>2018-03-05T15:46:07Z</time>
      </trkpt>
      <trkpt lat="44.54523" lon="1.62912">
        <ele>296.7</ele>
        <time>2018-03-05T15:46:31Z</time>
      </trkpt>
      <trkpt lat="44.54545" lon="1.6292">
        <ele>298.63</ele>
        <time>2018-03-05T15:46:50Z</time>
      </trkpt>
      <trkpt lat="44.54565" lon="1.62921">
        <ele>300.55</ele>
        <time>2018-03-05T15:47:08Z</time>
      </trkpt>
      <trkpt lat="44.54575" lon="1.62902">
        <ele>301.51</ele>
        <time>2018-03-05T15:47:47Z</time>
      </trkpt>
      <trkpt lat="44.54581" lon="1.62867">
        <ele>302.47</ele>
        <time>2018-03-05T15:48:17Z</time>
      </trkpt>
      <trkpt lat="44.54583" lon="1.62841">
        <ele>303.43</ele>
        <time>2018-03-05T15:49:00Z</time>
      </trkpt>
      <trkpt lat="44.54598" lon="1.62809">
        <ele>301.99</ele>
        <time>2018-03-05T15:49:41Z</time>
      </trkpt>
      <trkpt lat="44.54613" lon="1.62775">
        <ele>302.47</ele>
        <time>2018-03-05T15:50:16Z</time>
      </trkpt>
      <trkpt lat="44.54623" lon="1.62742">
        <ele>302.47</ele>
        <time>2018-03-05T15:50:43Z</time>
      </trkpt>
      <trkpt lat="44.54626" lon="1.6271">
        <ele>301.51</ele>
        <time>2018-03-05T15:51:07Z</time>
      </trkpt>
      <trkpt lat="44.5463" lon="1.62677">
        <ele>300.07</ele>
        <time>2018-03-05T15:51:31Z</time>
      </trkpt>
      <trkpt lat="44.54638" lon="1.62646">
        <ele>298.63</ele>
        <time>2018-03-05T15:51:51Z</time>
      </trkpt>
      <trkpt lat="44.54642" lon="1.62619">
        <ele>297.18</ele>
        <time>2018-03-05T15:52:14Z</time>
      </trkpt>
      <trkpt lat="44.54631" lon="1.6259">
        <ele>294.3</ele>
        <time>2018-03-05T15:52:41Z</time>
      </trkpt>
      <trkpt lat="44.54625" lon="1.62562">
        <ele>293.34</ele>
        <time>2018-03-05T15:53:03Z</time>
      </trkpt>
      <trkpt lat="44.5461" lon="1.62541">
        <ele>290.46</ele>
        <time>2018-03-05T15:53:23Z</time>
      </trkpt>
      <trkpt lat="44.54595" lon="1.62527">
        <ele>289.49</ele>
        <time>2018-03-05T15:53:45Z</time>
      </trkpt>
      <trkpt lat="44.54584" lon="1.6251">
        <ele>288.53</ele>
        <time>2018-03-05T15:56:00Z</time>
      </trkpt>
      <trkpt lat="44.54593" lon="1.62512">
        <ele>290.46</ele>
        <time>2018-03-05T15:57:37Z</time>
      </trkpt>
      <trkpt lat="44.5461" lon="1.62508">
        <ele>291.42</ele>
        <time>2018-03-05T15:58:01Z</time>
      </trkpt>
      <trkpt lat="44.54629" lon="1.625">
        <ele>291.9</ele>
        <time>2018-03-05T15:58:21Z</time>
      </trkpt>
      <trkpt lat="44.54645" lon="1.62488">
        <ele>292.38</ele>
        <time>2018-03-05T15:58:41Z</time>
      </trkpt>
      <trkpt lat="44.54664" lon="1.62489">
        <ele>292.38</ele>
        <time>2018-03-05T15:59:01Z</time>
      </trkpt>
      <trkpt lat="44.54681" lon="1.625">
        <ele>292.38</ele>
        <time>2018-03-05T15:59:20Z</time>
      </trkpt>
      <trkpt lat="44.54702" lon="1.62511">
        <ele>292.38</ele>
        <time>2018-03-05T15:59:52Z</time>
      </trkpt>
      <trkpt lat="44.54698" lon="1.6253">
        <ele>294.3</ele>
        <time>2018-03-05T16:01:22Z</time>
      </trkpt>
      <trkpt lat="44.54713" lon="1.62542">
        <ele>294.3</ele>
        <time>2018-03-05T16:02:35Z</time>
      </trkpt>
      <trkpt lat="44.54731" lon="1.62562">
        <ele>294.78</ele>
        <time>2018-03-05T16:02:58Z</time>
      </trkpt>
      <trkpt lat="44.54749" lon="1.62582">
        <ele>294.78</ele>
        <time>2018-03-05T16:03:19Z</time>
      </trkpt>
      <trkpt lat="44.54762" lon="1.62608">
        <ele>294.78</ele>
        <time>2018-03-05T16:03:40Z</time>
      </trkpt>
      <trkpt lat="44.5477" lon="1.62639">
        <ele>294.78</ele>
        <time>2018-03-05T16:03:59Z</time>
      </trkpt>
      <trkpt lat="44.54778" lon="1.62673">
        <ele>293.34</ele>
        <time>2018-03-05T16:04:18Z</time>
      </trkpt>
      <trkpt lat="44.54786" lon="1.62704">
        <ele>293.34</ele>
        <time>2018-03-05T16:04:40Z</time>
      </trkpt>
      <trkpt lat="44.54797" lon="1.62736">
        <ele>295.74</ele>
        <time>2018-03-05T16:05:02Z</time>
      </trkpt>
      <trkpt lat="44.54801" lon="1.62771">
        <ele>296.7</ele>
        <time>2018-03-05T16:05:24Z</time>
      </trkpt>
      <trkpt lat="44.54803" lon="1.62805">
        <ele>296.7</ele>
        <time>2018-03-05T16:05:45Z</time>
      </trkpt>
      <trkpt lat="44.54811" lon="1.62834">
        <ele>295.26</ele>
        <time>2018-03-05T16:06:05Z</time>
      </trkpt>
      <trkpt lat="44.54829" lon="1.62856">
        <ele>295.26</ele>
        <time>2018-03-05T16:06:25Z</time>
      </trkpt>
      <trkpt lat="44.54844" lon="1.62881">
        <ele>295.26</ele>
        <time>2018-03-05T16:06:45Z</time>
      </trkpt>
      <trkpt lat="44.54856" lon="1.62905">
        <ele>295.26</ele>
        <time>2018-03-05T16:07:04Z</time>
      </trkpt>
      <trkpt lat="44.54869" lon="1.62927">
        <ele>295.26</ele>
        <time>2018-03-05T16:07:21Z</time>
      </trkpt>
      <trkpt lat="44.54882" lon="1.62954">
        <ele>295.26</ele>
        <time>2018-03-05T16:07:41Z</time>
      </trkpt>
      <trkpt lat="44.54895" lon="1.62977">
        <ele>295.26</ele>
        <time>2018-03-05T16:08:00Z</time>
      </trkpt>
      <trkpt lat="44.54903" lon="1.63005">
        <ele>293.34</ele>
        <time>2018-03-05T16:08:18Z</time>
      </trkpt>
      <trkpt lat="44.54907" lon="1.63034">
        <ele>290.94</ele>
        <time>2018-03-05T16:08:39Z</time>
      </trkpt>
      <trkpt lat="44.5491" lon="1.63062">
        <ele>289.97</ele>
        <time>2018-03-05T16:08:55Z</time>
      </trkpt>
      <trkpt lat="44.54912" lon="1.63087">
        <ele>289.49</ele>
        <time>2018-03-05T16:09:07Z</time>
      </trkpt>
      <trkpt lat="44.5492" lon="1.63107">
        <ele>288.05</ele>
        <time>2018-03-05T16:09:27Z</time>
      </trkpt>
      <trkpt lat="44.54935" lon="1.63128">
        <ele>287.09</ele>
        <time>2018-03-05T16:09:41Z</time>
      </trkpt>
      <trkpt lat="44.54947" lon="1.63145">
        <ele>286.61</ele>
        <time>2018-03-05T16:09:51Z</time>
      </trkpt>
      <trkpt lat="44.54961" lon="1.63169">
        <ele>284.21</ele>
        <time>2018-03-05T16:10:17Z</time>
      </trkpt>
      <trkpt lat="44.54973" lon="1.63194">
        <ele>283.25</ele>
        <time>2018-03-05T16:10:31Z</time>
      </trkpt>
      <trkpt lat="44.54983" lon="1.63215">
        <ele>283.25</ele>
        <time>2018-03-05T16:10:46Z</time>
      </trkpt>
      <trkpt lat="44.54999" lon="1.63228">
        <ele>282.77</ele>
        <time>2018-03-05T16:11:00Z</time>
      </trkpt>
      <trkpt lat="44.55014" lon="1.63238">
        <ele>282.77</ele>
        <time>2018-03-05T16:11:18Z</time>
      </trkpt>
      <trkpt lat="44.55026" lon="1.63258">
        <ele>285.17</ele>
        <time>2018-03-05T16:11:34Z</time>
      </trkpt>
      <trkpt lat="44.55033" lon="1.63284">
        <ele>287.09</ele>
        <time>2018-03-05T16:11:50Z</time>
      </trkpt>
      <trkpt lat="44.55038" lon="1.6331">
        <ele>287.57</ele>
        <time>2018-03-05T16:12:05Z</time>
      </trkpt>
      <trkpt lat="44.55048" lon="1.63339">
        <ele>286.13</ele>
        <time>2018-03-05T16:12:27Z</time>
      </trkpt>
      <trkpt lat="44.55057" lon="1.63362">
        <ele>286.13</ele>
        <time>2018-03-05T16:12:37Z</time>
      </trkpt>
      <trkpt lat="44.55076" lon="1.63392">
        <ele>284.69</ele>
        <time>2018-03-05T16:13:10Z</time>
      </trkpt>
      <trkpt lat="44.55096" lon="1.63425">
        <ele>284.21</ele>
        <time>2018-03-05T16:13:26Z</time>
      </trkpt>
      <trkpt lat="44.55107" lon="1.63451">
        <ele>283.73</ele>
        <time>2018-03-05T16:13:41Z</time>
      </trkpt>
      <trkpt lat="44.55113" lon="1.63469">
        <ele>284.21</ele>
        <time>2018-03-05T16:13:56Z</time>
      </trkpt>
      <trkpt lat="44.55128" lon="1.63516">
        <ele>284.21</ele>
        <time>2018-03-05T16:14:25Z</time>
      </trkpt>
      <trkpt lat="44.5514" lon="1.63535">
        <ele>284.21</ele>
        <time>2018-03-05T16:14:36Z</time>
      </trkpt>
      <trkpt lat="44.55157" lon="1.63549">
        <ele>286.13</ele>
        <time>2018-03-05T16:14:56Z</time>
      </trkpt>
      <trkpt lat="44.5517" lon="1.63568">
        <ele>287.57</ele>
        <time>2018-03-05T16:15:10Z</time>
      </trkpt>
      <trkpt lat="44.55179" lon="1.63589">
        <ele>289.01</ele>
        <time>2018-03-05T16:15:26Z</time>
      </trkpt>
      <trkpt lat="44.55187" lon="1.63609">
        <ele>290.46</ele>
        <time>2018-03-05T16:15:51Z</time>
      </trkpt>
      <trkpt lat="44.55176" lon="1.63626">
        <ele>290.94</ele>
        <time>2018-03-05T16:16:34Z</time>
      </trkpt>
      <trkpt lat="44.55165" lon="1.63649">
        <ele>291.9</ele>
        <time>2018-03-05T16:16:54Z</time>
      </trkpt>
      <trkpt lat="44.55157" lon="1.63675">
        <ele>292.38</ele>
        <time>2018-03-05T16:17:13Z</time>
      </trkpt>
      <trkpt lat="44.5515" lon="1.63702">
        <ele>293.34</ele>
        <time>2018-03-05T16:17:32Z</time>
      </trkpt>
      <trkpt lat="44.55141" lon="1.63738">
        <ele>293.82</ele>
        <time>2018-03-05T16:17:56Z</time>
      </trkpt>
      <trkpt lat="44.55132" lon="1.63763">
        <ele>294.78</ele>
        <time>2018-03-05T16:18:13Z</time>
      </trkpt>
      <trkpt lat="44.5512" lon="1.63791">
        <ele>295.74</ele>
        <time>2018-03-05T16:18:32Z</time>
      </trkpt>
      <trkpt lat="44.55107" lon="1.63817">
        <ele>296.7</ele>
        <time>2018-03-05T16:18:53Z</time>
      </trkpt>
      <trkpt lat="44.55104" lon="1.63843">
        <ele>297.18</ele>
        <time>2018-03-05T16:19:50Z</time>
      </trkpt>
      <trkpt lat="44.55105" lon="1.63867">
        <ele>297.18</ele>
        <time>2018-03-05T16:20:06Z</time>
      </trkpt>
      <trkpt lat="44.55108" lon="1.63898">
        <ele>297.18</ele>
        <time>2018-03-05T16:20:30Z</time>
      </trkpt>
      <trkpt lat="44.55112" lon="1.63928">
        <ele>297.18</ele>
        <time>2018-03-05T16:20:46Z</time>
      </trkpt>
      <trkpt lat="44.55117" lon="1.63959">
        <ele>297.18</ele>
        <time>2018-03-05T16:21:05Z</time>
      </trkpt>
      <trkpt lat="44.55122" lon="1.63992">
        <ele>297.18</ele>
        <time>2018-03-05T16:21:26Z</time>
      </trkpt>
      <trkpt lat="44.55128" lon="1.64027">
        <ele>295.74</ele>
        <time>2018-03-05T16:21:50Z</time>
      </trkpt>
      <trkpt lat="44.55133" lon="1.64065">
        <ele>294.78</ele>
        <time>2018-03-05T16:22:14Z</time>
      </trkpt>
      <trkpt lat="44.55137" lon="1.64098">
        <ele>294.3</ele>
        <time>2018-03-05T16:22:35Z</time>
      </trkpt>
      <trkpt lat="44.55138" lon="1.64132">
        <ele>293.34</ele>
        <time>2018-03-05T16:22:55Z</time>
      </trkpt>
      <trkpt lat="44.5514" lon="1.64165">
        <ele>292.86</ele>
        <time>2018-03-05T16:23:14Z</time>
      </trkpt>
      <trkpt lat="44.55153" lon="1.64194">
        <ele>292.38</ele>
        <time>2018-03-05T16:23:37Z</time>
      </trkpt>
      <trkpt lat="44.55169" lon="1.64218">
        <ele>291.9</ele>
        <time>2018-03-05T16:23:55Z</time>
      </trkpt>
      <trkpt lat="44.5519" lon="1.64236">
        <ele>290.94</ele>
        <time>2018-03-05T16:24:14Z</time>
      </trkpt>
      <trkpt lat="44.55204" lon="1.64263">
        <ele>289.49</ele>
        <time>2018-03-05T16:24:31Z</time>
      </trkpt>
      <trkpt lat="44.55217" lon="1.64284">
        <ele>288.53</ele>
        <time>2018-03-05T16:24:47Z</time>
      </trkpt>
      <trkpt lat="44.55229" lon="1.64307">
        <ele>287.57</ele>
        <time>2018-03-05T16:25:03Z</time>
      </trkpt>
      <trkpt lat="44.55237" lon="1.64332">
        <ele>287.09</ele>
        <time>2018-03-05T16:25:20Z</time>
      </trkpt>
      <trkpt lat="44.55242" lon="1.64356">
        <ele>287.09</ele>
        <time>2018-03-05T16:25:41Z</time>
      </trkpt>
      <trkpt lat="44.55256" lon="1.64376">
        <ele>286.61</ele>
        <time>2018-03-05T16:25:58Z</time>
      </trkpt>
      <trkpt lat="44.55259" lon="1.64402">
        <ele>286.61</ele>
        <time>2018-03-05T16:26:15Z</time>
      </trkpt>
      <trkpt lat="44.55254" lon="1.64431">
        <ele>286.13</ele>
        <time>2018-03-05T16:26:33Z</time>
      </trkpt>
      <trkpt lat="44.5525" lon="1.6446">
        <ele>285.17</ele>
        <time>2018-03-05T16:26:52Z</time>
      </trkpt>
      <trkpt lat="44.55249" lon="1.64487">
        <ele>284.21</ele>
        <time>2018-03-05T16:27:07Z</time>
      </trkpt>
      <trkpt lat="44.55242" lon="1.64515">
        <ele>282.77</ele>
        <time>2018-03-05T16:27:26Z</time>
      </trkpt>
      <trkpt lat="44.55235" lon="1.64546">
        <ele>281.8</ele>
        <time>2018-03-05T16:27:45Z</time>
      </trkpt>
      <trkpt lat="44.55235" lon="1.64573">
        <ele>280.84</ele>
        <time>2018-03-05T16:27:59Z</time>
      </trkpt>
      <trkpt lat="44.55242" lon="1.64593">
        <ele>280.84</ele>
        <time>2018-03-05T16:28:17Z</time>
      </trkpt>
      <trkpt lat="44.55247" lon="1.64622">
        <ele>280.36</ele>
        <time>2018-03-05T16:28:44Z</time>
      </trkpt>
      <trkpt lat="44.55246" lon="1.64645">
        <ele>280.36</ele>
        <time>2018-03-05T16:28:56Z</time>
      </trkpt>
      <trkpt lat="44.55248" lon="1.64671">
        <ele>279.88</ele>
        <time>2018-03-05T16:29:14Z</time>
      </trkpt>
      <trkpt lat="44.55248" lon="1.64699">
        <ele>279.4</ele>
        <time>2018-03-05T16:29:31Z</time>
      </trkpt>
      <trkpt lat="44.55245" lon="1.64722">
        <ele>278.92</ele>
        <time>2018-03-05T16:29:45Z</time>
      </trkpt>
      <trkpt lat="44.55259" lon="1.6474">
        <ele>278.92</ele>
        <time>2018-03-05T16:30:07Z</time>
      </trkpt>
      <trkpt lat="44.55273" lon="1.64755">
        <ele>280.84</ele>
        <time>2018-03-05T16:30:27Z</time>
      </trkpt>
      <trkpt lat="44.55289" lon="1.64764">
        <ele>280.84</ele>
        <time>2018-03-05T16:30:45Z</time>
      </trkpt>
      <trkpt lat="44.55309" lon="1.64774">
        <ele>281.32</ele>
        <time>2018-03-05T16:31:06Z</time>
      </trkpt>
      <trkpt lat="44.55316" lon="1.64774">
        <ele>281.8</ele>
        <time>2018-03-05T16:32:10Z</time>
      </trkpt>
      <trkpt lat="44.55314" lon="1.64775">
        <ele>281.8</ele>
        <time>2018-03-05T16:34:24Z</time>
      </trkpt>
      <trkpt lat="44.55314" lon="1.64773">
        <ele>281.8</ele>
        <time>2018-03-05T16:35:49Z</time>
      </trkpt>
      <trkpt lat="44.553" lon="1.6477">
        <ele>281.8</ele>
        <time>2018-03-05T16:36:48Z</time>
      </trkpt>
      <trkpt lat="44.5528" lon="1.64763">
        <ele>281.8</ele>
        <time>2018-03-05T16:37:10Z</time>
      </trkpt>
      <trkpt lat="44.55263" lon="1.64749">
        <ele>280.36</ele>
        <time>2018-03-05T16:37:27Z</time>
      </trkpt>
      <trkpt lat="44.55249" lon="1.64727">
        <ele>279.88</ele>
        <time>2018-03-05T16:37:45Z</time>
      </trkpt>
      <trkpt lat="44.55246" lon="1.64701">
        <ele>278.44</ele>
        <time>2018-03-05T16:38:04Z</time>
      </trkpt>
      <trkpt lat="44.55245" lon="1.64672">
        <ele>278.92</ele>
        <time>2018-03-05T16:38:24Z</time>
      </trkpt>
      <trkpt lat="44.55244" lon="1.64644">
        <ele>279.88</ele>
        <time>2018-03-05T16:38:42Z</time>
      </trkpt>
      <trkpt lat="44.55243" lon="1.64616">
        <ele>280.84</ele>
        <time>2018-03-05T16:38:59Z</time>
      </trkpt>
      <trkpt lat="44.55244" lon="1.64591">
        <ele>281.32</ele>
        <time>2018-03-05T16:39:17Z</time>
      </trkpt>
      <trkpt lat="44.55263" lon="1.64594">
        <ele>281.8</ele>
        <time>2018-03-05T16:39:37Z</time>
      </trkpt>
      <trkpt lat="44.55282" lon="1.646">
        <ele>281.8</ele>
        <time>2018-03-05T16:40:03Z</time>
      </trkpt>
      <trkpt lat="44.55303" lon="1.64612">
        <ele>281.8</ele>
        <time>2018-03-05T16:40:22Z</time>
      </trkpt>
      <trkpt lat="44.55323" lon="1.64616">
        <ele>280.84</ele>
        <time>2018-03-05T16:40:39Z</time>
      </trkpt>
      <trkpt lat="44.55343" lon="1.64624">
        <ele>278.92</ele>
        <time>2018-03-05T16:40:57Z</time>
      </trkpt>
      <trkpt lat="44.55358" lon="1.64618">
        <ele>277.96</ele>
        <time>2018-03-05T16:41:37Z</time>
      </trkpt>
      <trkpt lat="44.55369" lon="1.64594">
        <ele>277.96</ele>
        <time>2018-03-05T16:42:06Z</time>
      </trkpt>
      <trkpt lat="44.55378" lon="1.64567">
        <ele>277.96</ele>
        <time>2018-03-05T16:42:23Z</time>
      </trkpt>
      <trkpt lat="44.55387" lon="1.6454">
        <ele>277.96</ele>
        <time>2018-03-05T16:42:39Z</time>
      </trkpt>
      <trkpt lat="44.55397" lon="1.64517">
        <ele>277.48</ele>
        <time>2018-03-05T16:42:57Z</time>
      </trkpt>
      <trkpt lat="44.55406" lon="1.64493">
        <ele>277.48</ele>
        <time>2018-03-05T16:43:14Z</time>
      </trkpt>
      <trkpt lat="44.55416" lon="1.64467">
        <ele>277.48</ele>
        <time>2018-03-05T16:43:30Z</time>
      </trkpt>
      <trkpt lat="44.55426" lon="1.64444">
        <ele>277.48</ele>
        <time>2018-03-05T16:43:45Z</time>
      </trkpt>
      <trkpt lat="44.55435" lon="1.6442">
        <ele>277.48</ele>
        <time>2018-03-05T16:44:01Z</time>
      </trkpt>
      <trkpt lat="44.55443" lon="1.64395">
        <ele>276.04</ele>
        <time>2018-03-05T16:44:19Z</time>
      </trkpt>
      <trkpt lat="44.5545" lon="1.64367">
        <ele>274.11</ele>
        <time>2018-03-05T16:44:39Z</time>
      </trkpt>
      <trkpt lat="44.55456" lon="1.64329">
        <ele>273.15</ele>
        <time>2018-03-05T16:45:03Z</time>
      </trkpt>
      <trkpt lat="44.55466" lon="1.64302">
        <ele>274.59</ele>
        <time>2018-03-05T16:45:23Z</time>
      </trkpt>
      <trkpt lat="44.55482" lon="1.64279">
        <ele>275.07</ele>
        <time>2018-03-05T16:45:46Z</time>
      </trkpt>
      <trkpt lat="44.55506" lon="1.64284">
        <ele>275.56</ele>
        <time>2018-03-05T16:46:07Z</time>
      </trkpt>
      <trkpt lat="44.55529" lon="1.6428">
        <ele>277.48</ele>
        <time>2018-03-05T16:46:25Z</time>
      </trkpt>
      <trkpt lat="44.55552" lon="1.64276">
        <ele>279.4</ele>
        <time>2018-03-05T16:46:45Z</time>
      </trkpt>
      <trkpt lat="44.55572" lon="1.64277">
        <ele>281.32</ele>
        <time>2018-03-05T16:47:04Z</time>
      </trkpt>
      <trkpt lat="44.55593" lon="1.64273">
        <ele>282.28</ele>
        <time>2018-03-05T16:47:23Z</time>
      </trkpt>
      <trkpt lat="44.55612" lon="1.64261">
        <ele>283.73</ele>
        <time>2018-03-05T16:47:41Z</time>
      </trkpt>
      <trkpt lat="44.55631" lon="1.64245">
        <ele>285.17</ele>
        <time>2018-03-05T16:47:59Z</time>
      </trkpt>
      <trkpt lat="44.5565" lon="1.64231">
        <ele>285.17</ele>
        <time>2018-03-05T16:48:18Z</time>
      </trkpt>
      <trkpt lat="44.55671" lon="1.64223">
        <ele>286.13</ele>
        <time>2018-03-05T16:48:38Z</time>
      </trkpt>
      <trkpt lat="44.55692" lon="1.64213">
        <ele>287.57</ele>
        <time>2018-03-05T16:48:56Z</time>
      </trkpt>
      <trkpt lat="44.55713" lon="1.64205">
        <ele>289.01</ele>
        <time>2018-03-05T16:49:15Z</time>
      </trkpt>
      <trkpt lat="44.55736" lon="1.64192">
        <ele>289.49</ele>
        <time>2018-03-05T16:49:34Z</time>
      </trkpt>
      <trkpt lat="44.55806" lon="1.63996">
        <ele>246.72</ele>
        <time>2018-03-05T16:52:35Z</time>
      </trkpt>
      <trkpt lat="44.55818" lon="1.63979">
        <ele>264.02</ele>
        <time>2018-03-05T16:52:58Z</time>
      </trkpt>
      <trkpt lat="44.55826" lon="1.63952">
        <ele>273.63</ele>
        <time>2018-03-05T16:53:18Z</time>
      </trkpt>
    </trkseg>
  </trk>
</gpx>